sensor_id;sensor_type;location;lat;lon;timestamp;temperature;humidity
50570;DHT22;36525;49.398;7.614;2022-11-18T00:01:17;8.40;99.90
50570;DHT22;36525;49.398;7.614;2022-11-18T00:03:45;8.40;99.90
50570;DHT22;36525;49.398;7.614;2022-11-18T00:06:15;8.40;99.90
50570;DHT22;36525;49.398;7.614;2022-11-18T00:08:43;8.50;99.90
50570;DHT22;36525;49.398;7.614;2022-11-18T00:11:13;8.40;99.90
50570;DHT22;36525;49.398;7.614;2022-11-18T00:14:00;8.40;99.90
50570;DHT22;36525;49.398;7.614;2022-11-18T00:17:00;8.40;99.90
50570;DHT22;36525;49.398;7.614;2022-11-18T00:19:29;8.50;99.90
50570;DHT22;36525;49.398;7.614;2022-11-18T00:21:58;8.50;99.90
50570;DHT22;36525;49.398;7.614;2022-11-18T00:24:27;8.50;99.90
50570;DHT22;36525;49.398;7.614;2022-11-18T00:26:54;8.60;99.90
50570;DHT22;36525;49.398;7.614;2022-11-18T00:29:22;8.70;99.90
50570;DHT22;36525;49.398;7.614;2022-11-18T00:31:51;8.70;99.90
50570;DHT22;36525;49.398;7.614;2022-11-18T00:34:18;8.70;99.90
50570;DHT22;36525;49.398;7.614;2022-11-18T00:36:46;8.70;99.90
50570;DHT22;36525;49.398;7.614;2022-11-18T00:39:15;8.70;99.90
50570;DHT22;36525;49.398;7.614;2022-11-18T00:41:44;8.70;99.90
50570;DHT22;36525;49.398;7.614;2022-11-18T00:44:30;8.70;99.90
50570;DHT22;36525;49.398;7.614;2022-11-18T00:46:57;8.80;99.90
50570;DHT22;36525;49.398;7.614;2022-11-18T00:49:24;8.70;99.90
50570;DHT22;36525;49.398;7.614;2022-11-18T00:51:51;8.80;99.90
50570;DHT22;36525;49.398;7.614;2022-11-18T00:54:19;8.80;99.90
50570;DHT22;36525;49.398;7.614;2022-11-18T00:56:47;8.80;99.90
50570;DHT22;36525;49.398;7.614;2022-11-18T00:59:14;8.80;99.90
50570;DHT22;36525;49.398;7.614;2022-11-18T01:01:41;8.80;99.90
50570;DHT22;36525;49.398;7.614;2022-11-18T01:04:08;8.80;99.90
50570;DHT22;36525;49.398;7.614;2022-11-18T01:06:35;8.80;99.90
50570;DHT22;36525;49.398;7.614;2022-11-18T01:09:02;8.80;99.90
50570;DHT22;36525;49.398;7.614;2022-11-18T01:11:29;8.80;99.90
50570;DHT22;36525;49.398;7.614;2022-11-18T01:14:15;8.80;99.90
50570;DHT22;36525;49.398;7.614;2022-11-18T01:16:42;8.80;99.90
50570;DHT22;36525;49.398;7.614;2022-11-18T01:19:09;8.80;99.90
50570;DHT22;36525;49.398;7.614;2022-11-18T01:21:37;8.80;99.90
50570;DHT22;36525;49.398;7.614;2022-11-18T01:24:04;8.80;99.90
50570;DHT22;36525;49.398;7.614;2022-11-18T01:26:31;8.80;99.90
50570;DHT22;36525;49.398;7.614;2022-11-18T01:28:58;8.80;99.90
50570;DHT22;36525;49.398;7.614;2022-11-18T01:31:25;8.80;99.90
50570;DHT22;36525;49.398;7.614;2022-11-18T01:33:52;8.90;99.90
50570;DHT22;36525;49.398;7.614;2022-11-18T01:36:21;8.90;99.90
50570;DHT22;36525;49.398;7.614;2022-11-18T01:38:50;8.90;99.90
50570;DHT22;36525;49.398;7.614;2022-11-18T01:41:19;8.90;99.90
50570;DHT22;36525;49.398;7.614;2022-11-18T01:46:48;8.90;99.90
50570;DHT22;36525;49.398;7.614;2022-11-18T01:49:15;8.90;99.90
50570;DHT22;36525;49.398;7.614;2022-11-18T01:51:54;8.90;99.90
50570;DHT22;36525;49.398;7.614;2022-11-18T01:54:30;8.90;99.90
50570;DHT22;36525;49.398;7.614;2022-11-18T01:57:03;8.90;99.90
50570;DHT22;36525;49.398;7.614;2022-11-18T01:59:36;8.90;99.90
50570;DHT22;36525;49.398;7.614;2022-11-18T02:02:10;8.90;99.90
50570;DHT22;36525;49.398;7.614;2022-11-18T02:04:38;8.90;99.90
50570;DHT22;36525;49.398;7.614;2022-11-18T02:07:07;8.90;99.90
50570;DHT22;36525;49.398;7.614;2022-11-18T02:09:36;8.90;99.90
50570;DHT22;36525;49.398;7.614;2022-11-18T02:12:04;8.90;99.90
50570;DHT22;36525;49.398;7.614;2022-11-18T02:14:35;8.90;99.90
50570;DHT22;36525;49.398;7.614;2022-11-18T02:20:12;9.00;99.90
50570;DHT22;36525;49.398;7.614;2022-11-18T02:23:20;9.00;99.90
50570;DHT22;36525;49.398;7.614;2022-11-18T02:26:27;8.90;99.90
50570;DHT22;36525;49.398;7.614;2022-11-18T02:29:09;8.90;99.90
50570;DHT22;36525;49.398;7.614;2022-11-18T02:32:05;8.90;99.90
50570;DHT22;36525;49.398;7.614;2022-11-18T02:34:46;8.90;99.90
50570;DHT22;36525;49.398;7.614;2022-11-18T02:37:29;8.90;99.90
50570;DHT22;36525;49.398;7.614;2022-11-18T02:40:18;8.90;99.90
50570;DHT22;36525;49.398;7.614;2022-11-18T02:42:57;8.90;99.90
50570;DHT22;36525;49.398;7.614;2022-11-18T02:45:35;8.90;99.90
50570;DHT22;36525;49.398;7.614;2022-11-18T02:48:06;8.90;99.90
50570;DHT22;36525;49.398;7.614;2022-11-18T02:50:36;8.90;99.90
50570;DHT22;36525;49.398;7.614;2022-11-18T02:53:06;8.90;99.90
50570;DHT22;36525;49.398;7.614;2022-11-18T02:55:35;8.80;99.90
50570;DHT22;36525;49.398;7.614;2022-11-18T02:58:04;8.80;99.90
50570;DHT22;36525;49.398;7.614;2022-11-18T03:00:32;8.70;99.90
50570;DHT22;36525;49.398;7.614;2022-11-18T03:02:59;8.60;99.90
50570;DHT22;36525;49.398;7.614;2022-11-18T03:05:29;8.40;99.90
50570;DHT22;36525;49.398;7.614;2022-11-18T03:08:10;8.30;99.90
50570;DHT22;36525;49.398;7.614;2022-11-18T03:10:50;8.20;99.90
50570;DHT22;36525;49.398;7.614;2022-11-18T03:13:25;8.20;99.90
50570;DHT22;36525;49.398;7.614;2022-11-18T03:16:11;8.10;99.90
50570;DHT22;36525;49.398;7.614;2022-11-18T03:18:51;8.00;99.90
50570;DHT22;36525;49.398;7.614;2022-11-18T03:21:38;8.00;99.90
50570;DHT22;36525;49.398;7.614;2022-11-18T03:24:30;7.90;99.90
50570;DHT22;36525;49.398;7.614;2022-11-18T03:27:11;7.80;99.90
50570;DHT22;36525;49.398;7.614;2022-11-18T03:30:05;7.70;99.90
50570;DHT22;36525;49.398;7.614;2022-11-18T03:32:40;7.70;99.90
50570;DHT22;36525;49.398;7.614;2022-11-18T03:35:21;7.60;99.90
50570;DHT22;36525;49.398;7.614;2022-11-18T03:37:55;7.70;99.90
50570;DHT22;36525;49.398;7.614;2022-11-18T03:40:30;7.60;99.90
50570;DHT22;36525;49.398;7.614;2022-11-18T03:43:11;7.60;99.90
50570;DHT22;36525;49.398;7.614;2022-11-18T03:45:50;7.60;99.90
50570;DHT22;36525;49.398;7.614;2022-11-18T03:49:06;7.60;99.90
50570;DHT22;36525;49.398;7.614;2022-11-18T03:51:32;7.60;99.90
50570;DHT22;36525;49.398;7.614;2022-11-18T03:54:11;7.50;99.90
50570;DHT22;36525;49.398;7.614;2022-11-18T03:56:51;7.50;99.90
50570;DHT22;36525;49.398;7.614;2022-11-18T03:59:36;7.40;99.90
50570;DHT22;36525;49.398;7.614;2022-11-18T04:02:19;7.40;99.90
50570;DHT22;36525;49.398;7.614;2022-11-18T04:04:49;7.40;99.90
50570;DHT22;36525;49.398;7.614;2022-11-18T04:07:25;7.40;99.90
50570;DHT22;36525;49.398;7.614;2022-11-18T04:12:53;7.20;99.90
50570;DHT22;36525;49.398;7.614;2022-11-18T04:15:36;7.20;99.90
50570;DHT22;36525;49.398;7.614;2022-11-18T04:18:04;7.20;99.90
50570;DHT22;36525;49.398;7.614;2022-11-18T04:20:32;7.10;99.90
50570;DHT22;36525;49.398;7.614;2022-11-18T04:23:04;7.00;99.90
50570;DHT22;36525;49.398;7.614;2022-11-18T04:25:32;7.00;99.90
50570;DHT22;36525;49.398;7.614;2022-11-18T04:28:00;6.90;99.90
50570;DHT22;36525;49.398;7.614;2022-11-18T04:30:27;6.90;99.90
50570;DHT22;36525;49.398;7.614;2022-11-18T04:32:54;6.90;99.90
50570;DHT22;36525;49.398;7.614;2022-11-18T04:35:21;6.80;99.90
50570;DHT22;36525;49.398;7.614;2022-11-18T04:37:48;6.90;99.90
50570;DHT22;36525;49.398;7.614;2022-11-18T04:40:15;6.90;99.90
50570;DHT22;36525;49.398;7.614;2022-11-18T04:42:42;6.80;99.90
50570;DHT22;36525;49.398;7.614;2022-11-18T04:45:09;6.80;99.90
50570;DHT22;36525;49.398;7.614;2022-11-18T04:47:37;6.80;99.90
50570;DHT22;36525;49.398;7.614;2022-11-18T04:50:05;6.80;99.90
50570;DHT22;36525;49.398;7.614;2022-11-18T04:52:32;6.80;99.90
50570;DHT22;36525;49.398;7.614;2022-11-18T04:54:59;6.70;99.90
50570;DHT22;36525;49.398;7.614;2022-11-18T04:57:26;6.70;99.90
50570;DHT22;36525;49.398;7.614;2022-11-18T04:59:52;6.70;99.90
50570;DHT22;36525;49.398;7.614;2022-11-18T05:02:19;6.60;99.90
50570;DHT22;36525;49.398;7.614;2022-11-18T05:04:46;6.60;99.90
50570;DHT22;36525;49.398;7.614;2022-11-18T05:07:14;6.70;99.90
50570;DHT22;36525;49.398;7.614;2022-11-18T05:09:41;6.60;99.90
50570;DHT22;36525;49.398;7.614;2022-11-18T05:12:12;6.60;99.90
50570;DHT22;36525;49.398;7.614;2022-11-18T05:14:59;6.50;99.90
50570;DHT22;36525;49.398;7.614;2022-11-18T05:17:26;6.50;99.90
50570;DHT22;36525;49.398;7.614;2022-11-18T05:19:53;6.50;99.90
50570;DHT22;36525;49.398;7.614;2022-11-18T05:22:20;6.40;99.90
50570;DHT22;36525;49.398;7.614;2022-11-18T05:24:48;6.40;99.90
50570;DHT22;36525;49.398;7.614;2022-11-18T05:27:15;6.40;99.90
50570;DHT22;36525;49.398;7.614;2022-11-18T05:29:42;6.40;99.90
50570;DHT22;36525;49.398;7.614;2022-11-18T05:32:09;6.50;99.90
50570;DHT22;36525;49.398;7.614;2022-11-18T05:34:39;6.40;99.90
50570;DHT22;36525;49.398;7.614;2022-11-18T05:37:07;6.40;99.90
50570;DHT22;36525;49.398;7.614;2022-11-18T05:39:34;6.40;99.90
50570;DHT22;36525;49.398;7.614;2022-11-18T05:42:02;6.40;99.90
50570;DHT22;36525;49.398;7.614;2022-11-18T05:44:47;6.50;99.90
50570;DHT22;36525;49.398;7.614;2022-11-18T05:47:23;6.50;99.90
50570;DHT22;36525;49.398;7.614;2022-11-18T05:49:50;6.50;99.90
50570;DHT22;36525;49.398;7.614;2022-11-18T05:52:17;6.50;99.90
50570;DHT22;36525;49.398;7.614;2022-11-18T05:54:48;6.50;99.90
50570;DHT22;36525;49.398;7.614;2022-11-18T05:57:16;6.60;99.90
50570;DHT22;36525;49.398;7.614;2022-11-18T05:59:43;6.50;99.90
50570;DHT22;36525;49.398;7.614;2022-11-18T06:02:15;6.50;99.90
50570;DHT22;36525;49.398;7.614;2022-11-18T06:04:52;6.50;99.90
50570;DHT22;36525;49.398;7.614;2022-11-18T06:07:26;6.50;99.90
50570;DHT22;36525;49.398;7.614;2022-11-18T06:09:58;6.50;99.90
50570;DHT22;36525;49.398;7.614;2022-11-18T06:12:35;6.50;99.90
50570;DHT22;36525;49.398;7.614;2022-11-18T06:15:15;6.50;99.90
50570;DHT22;36525;49.398;7.614;2022-11-18T06:17:49;6.50;99.90
50570;DHT22;36525;49.398;7.614;2022-11-18T06:20:20;6.50;99.90
50570;DHT22;36525;49.398;7.614;2022-11-18T06:22:50;6.50;99.90
50570;DHT22;36525;49.398;7.614;2022-11-18T06:25:20;6.60;99.90
50570;DHT22;36525;49.398;7.614;2022-11-18T06:27:48;6.60;99.90
50570;DHT22;36525;49.398;7.614;2022-11-18T06:30:16;6.60;99.90
50570;DHT22;36525;49.398;7.614;2022-11-18T06:32:43;6.60;99.90
50570;DHT22;36525;49.398;7.614;2022-11-18T06:35:10;6.70;99.90
50570;DHT22;36525;49.398;7.614;2022-11-18T06:37:37;6.70;99.90
50570;DHT22;36525;49.398;7.614;2022-11-18T06:40:04;6.70;99.90
50570;DHT22;36525;49.398;7.614;2022-11-18T06:42:32;6.80;99.90
50570;DHT22;36525;49.398;7.614;2022-11-18T06:45:17;6.80;99.90
50570;DHT22;36525;49.398;7.614;2022-11-18T06:47:44;6.80;99.90
50570;DHT22;36525;49.398;7.614;2022-11-18T06:50:11;6.90;99.90
50570;DHT22;36525;49.398;7.614;2022-11-18T06:52:38;6.90;99.90
50570;DHT22;36525;49.398;7.614;2022-11-18T06:55:05;6.90;99.90
50570;DHT22;36525;49.398;7.614;2022-11-18T06:57:34;6.90;99.90
50570;DHT22;36525;49.398;7.614;2022-11-18T07:00:01;6.90;99.90
50570;DHT22;36525;49.398;7.614;2022-11-18T07:02:29;6.90;99.90
50570;DHT22;36525;49.398;7.614;2022-11-18T07:04:56;6.90;99.90
50570;DHT22;36525;49.398;7.614;2022-11-18T07:07:23;7.00;99.90
50570;DHT22;36525;49.398;7.614;2022-11-18T07:09:50;7.00;99.90
50570;DHT22;36525;49.398;7.614;2022-11-18T07:12:17;7.00;99.90
50570;DHT22;36525;49.398;7.614;2022-11-18T07:14:45;7.00;99.90
50570;DHT22;36525;49.398;7.614;2022-11-18T07:17:12;7.00;99.90
50570;DHT22;36525;49.398;7.614;2022-11-18T07:19:39;7.00;99.90
50570;DHT22;36525;49.398;7.614;2022-11-18T07:22:06;7.10;99.90
50570;DHT22;36525;49.398;7.614;2022-11-18T07:24:33;7.10;99.90
50570;DHT22;36525;49.398;7.614;2022-11-18T07:27:00;7.10;99.90
50570;DHT22;36525;49.398;7.614;2022-11-18T07:29:27;7.20;99.90
50570;DHT22;36525;49.398;7.614;2022-11-18T07:31:54;7.20;99.90
50570;DHT22;36525;49.398;7.614;2022-11-18T07:34:21;7.20;99.90
50570;DHT22;36525;49.398;7.614;2022-11-18T07:36:48;7.20;99.90
50570;DHT22;36525;49.398;7.614;2022-11-18T07:39:15;7.30;99.90
50570;DHT22;36525;49.398;7.614;2022-11-18T07:41:42;7.30;99.90
50570;DHT22;36525;49.398;7.614;2022-11-18T07:44:12;7.30;99.90
50570;DHT22;36525;49.398;7.614;2022-11-18T07:46:40;7.30;99.90
50570;DHT22;36525;49.398;7.614;2022-11-18T07:49:07;7.40;99.90
50570;DHT22;36525;49.398;7.614;2022-11-18T07:51:38;7.40;99.90
50570;DHT22;36525;49.398;7.614;2022-11-18T07:54:11;7.30;99.90
50570;DHT22;36525;49.398;7.614;2022-11-18T07:56:39;7.40;99.90
50570;DHT22;36525;49.398;7.614;2022-11-18T07:59:06;7.50;99.90
50570;DHT22;36525;49.398;7.614;2022-11-18T08:01:33;7.60;99.90
50570;DHT22;36525;49.398;7.614;2022-11-18T08:04:13;7.60;99.90
50570;DHT22;36525;49.398;7.614;2022-11-18T08:06:40;7.70;99.90
50570;DHT22;36525;49.398;7.614;2022-11-18T08:09:08;7.70;99.90
50570;DHT22;36525;49.398;7.614;2022-11-18T08:11:35;7.70;99.90
50570;DHT22;36525;49.398;7.614;2022-11-18T08:14:03;7.80;99.90
50570;DHT22;36525;49.398;7.614;2022-11-18T08:16:30;7.90;99.90
50570;DHT22;36525;49.398;7.614;2022-11-18T08:18:57;7.90;99.90
50570;DHT22;36525;49.398;7.614;2022-11-18T08:21:25;8.10;99.90
50570;DHT22;36525;49.398;7.614;2022-11-18T08:23:54;8.20;99.90
50570;DHT22;36525;49.398;7.614;2022-11-18T08:26:23;8.30;99.90
50570;DHT22;36525;49.398;7.614;2022-11-18T08:28:51;8.40;99.90
50570;DHT22;36525;49.398;7.614;2022-11-18T08:31:21;8.40;99.90
50570;DHT22;36525;49.398;7.614;2022-11-18T08:34:03;8.40;99.90
50570;DHT22;36525;49.398;7.614;2022-11-18T08:36:34;8.50;99.90
50570;DHT22;36525;49.398;7.614;2022-11-18T08:39:04;8.50;99.90
50570;DHT22;36525;49.398;7.614;2022-11-18T08:41:33;8.60;99.90
50570;DHT22;36525;49.398;7.614;2022-11-18T08:44:01;8.70;99.90
50570;DHT22;36525;49.398;7.614;2022-11-18T08:46:29;8.60;99.90
50570;DHT22;36525;49.398;7.614;2022-11-18T08:48:56;8.70;99.90
50570;DHT22;36525;49.398;7.614;2022-11-18T08:53:51;8.90;99.90
50570;DHT22;36525;49.398;7.614;2022-11-18T08:56:19;8.90;99.90
50570;DHT22;36525;49.398;7.614;2022-11-18T08:58:47;8.90;99.90
50570;DHT22;36525;49.398;7.614;2022-11-18T09:01:14;8.90;99.90
50570;DHT22;36525;49.398;7.614;2022-11-18T09:03:41;9.00;99.90
50570;DHT22;36525;49.398;7.614;2022-11-18T09:06:10;8.90;99.90
50570;DHT22;36525;49.398;7.614;2022-11-18T09:08:41;8.90;99.90
50570;DHT22;36525;49.398;7.614;2022-11-18T09:11:17;9.00;99.90
50570;DHT22;36525;49.398;7.614;2022-11-18T09:13:47;9.00;99.90
50570;DHT22;36525;49.398;7.614;2022-11-18T09:16:37;9.10;99.90
50570;DHT22;36525;49.398;7.614;2022-11-18T09:19:04;9.10;99.90
50570;DHT22;36525;49.398;7.614;2022-11-18T09:21:51;9.20;99.90
50570;DHT22;36525;49.398;7.614;2022-11-18T09:24:18;9.30;99.90
50570;DHT22;36525;49.398;7.614;2022-11-18T09:26:46;9.20;99.90
50570;DHT22;36525;49.398;7.614;2022-11-18T09:29:13;9.10;99.90
50570;DHT22;36525;49.398;7.614;2022-11-18T09:31:40;9.00;99.90
50570;DHT22;36525;49.398;7.614;2022-11-18T09:34:07;9.00;99.90
50570;DHT22;36525;49.398;7.614;2022-11-18T09:36:36;9.00;99.90
50570;DHT22;36525;49.398;7.614;2022-11-18T09:39:03;8.90;99.90
50570;DHT22;36525;49.398;7.614;2022-11-18T09:47:32;9.00;99.90
50570;DHT22;36525;49.398;7.614;2022-11-18T09:50:03;9.10;99.90
50570;DHT22;36525;49.398;7.614;2022-11-18T09:53:23;9.00;99.90
50570;DHT22;36525;49.398;7.614;2022-11-18T09:55:51;9.00;99.90
50570;DHT22;36525;49.398;7.614;2022-11-18T09:58:33;8.90;99.90
50570;DHT22;36525;49.398;7.614;2022-11-18T10:01:02;8.90;99.90
50570;DHT22;36525;49.398;7.614;2022-11-18T10:03:31;8.90;99.90
50570;DHT22;36525;49.398;7.614;2022-11-18T10:08:47;9.00;99.90
50570;DHT22;36525;49.398;7.614;2022-11-18T10:11:31;9.00;99.90
50570;DHT22;36525;49.398;7.614;2022-11-18T10:14:17;9.10;99.90
50570;DHT22;36525;49.398;7.614;2022-11-18T10:25:40;9.70;99.90
50570;DHT22;36525;49.398;7.614;2022-11-18T10:28:27;9.90;99.90
50570;DHT22;36525;49.398;7.614;2022-11-18T10:31:10;10.00;99.90
50570;DHT22;36525;49.398;7.614;2022-11-18T10:33:37;10.00;99.90
50570;DHT22;36525;49.398;7.614;2022-11-18T10:36:18;10.10;99.90
50570;DHT22;36525;49.398;7.614;2022-11-18T10:39:14;10.30;99.90
50570;DHT22;36525;49.398;7.614;2022-11-18T10:41:47;10.10;99.90
50570;DHT22;36525;49.398;7.614;2022-11-18T10:44:36;9.90;99.90
50570;DHT22;36525;49.398;7.614;2022-11-18T10:47:29;9.90;99.90
50570;DHT22;36525;49.398;7.614;2022-11-18T10:50:08;9.90;99.90
50570;DHT22;36525;49.398;7.614;2022-11-18T10:53:32;9.80;99.90
50570;DHT22;36525;49.398;7.614;2022-11-18T10:56:02;9.70;99.90
50570;DHT22;36525;49.398;7.614;2022-11-18T10:58:34;9.50;99.90
50570;DHT22;36525;49.398;7.614;2022-11-18T11:01:18;9.30;99.90
50570;DHT22;36525;49.398;7.614;2022-11-18T11:06:42;9.10;99.90
50570;DHT22;36525;49.398;7.614;2022-11-18T11:11:43;9.00;99.90
50570;DHT22;36525;49.398;7.614;2022-11-18T11:15:25;9.00;99.90
50570;DHT22;36525;49.398;7.614;2022-11-18T11:17:39;9.10;99.90
50570;DHT22;36525;49.398;7.614;2022-11-18T11:20:20;9.20;99.90
50570;DHT22;36525;49.398;7.614;2022-11-18T11:22:49;9.30;99.90
50570;DHT22;36525;49.398;7.614;2022-11-18T11:36:55;9.50;99.90
50570;DHT22;36525;49.398;7.614;2022-11-18T11:39:55;9.70;99.90
50570;DHT22;36525;49.398;7.614;2022-11-18T11:51:44;10.30;99.90
50570;DHT22;36525;49.398;7.614;2022-11-18T11:59:55;10.60;99.90
50570;DHT22;36525;49.398;7.614;2022-11-18T12:05:41;10.40;99.90
50570;DHT22;36525;49.398;7.614;2022-11-18T12:08:13;10.00;99.90
50570;DHT22;36525;49.398;7.614;2022-11-18T12:13:55;9.60;99.90
50570;DHT22;36525;49.398;7.614;2022-11-18T12:16:41;9.40;99.90
50570;DHT22;36525;49.398;7.614;2022-11-18T12:19:19;9.30;99.90
50570;DHT22;36525;49.398;7.614;2022-11-18T12:21:51;9.40;99.90
50570;DHT22;36525;49.398;7.614;2022-11-18T12:26:50;9.60;99.90
50570;DHT22;36525;49.398;7.614;2022-11-18T12:31:52;9.90;99.90
50570;DHT22;36525;49.398;7.614;2022-11-18T12:36:52;10.20;99.90
50570;DHT22;36525;49.398;7.614;2022-11-18T12:41:57;10.40;99.90
50570;DHT22;36525;49.398;7.614;2022-11-18T12:44:48;10.30;99.90
50570;DHT22;36525;49.398;7.614;2022-11-18T12:50:09;10.30;99.90
50570;DHT22;36525;49.398;7.614;2022-11-18T12:55:23;10.20;99.90
50570;DHT22;36525;49.398;7.614;2022-11-18T12:57:51;10.20;99.90
50570;DHT22;36525;49.398;7.614;2022-11-18T13:02:59;10.20;99.90
50570;DHT22;36525;49.398;7.614;2022-11-18T13:05:32;10.10;99.90
50570;DHT22;36525;49.398;7.614;2022-11-18T13:08:08;10.20;99.90
50570;DHT22;36525;49.398;7.614;2022-11-18T13:10:48;10.20;99.90
50570;DHT22;36525;49.398;7.614;2022-11-18T13:15:54;10.20;99.90
50570;DHT22;36525;49.398;7.614;2022-11-18T13:18:51;10.10;99.90
50570;DHT22;36525;49.398;7.614;2022-11-18T13:21:27;10.00;99.90
50570;DHT22;36525;49.398;7.614;2022-11-18T13:24:15;10.00;99.90
50570;DHT22;36525;49.398;7.614;2022-11-18T13:26:45;10.00;99.90
50570;DHT22;36525;49.398;7.614;2022-11-18T13:32:26;9.90;99.90
50570;DHT22;36525;49.398;7.614;2022-11-18T13:35:08;9.90;99.90
50570;DHT22;36525;49.398;7.614;2022-11-18T13:37:48;9.90;99.90
50570;DHT22;36525;49.398;7.614;2022-11-18T13:40:25;9.90;99.90
50570;DHT22;36525;49.398;7.614;2022-11-18T13:42:56;10.00;99.90
50570;DHT22;36525;49.398;7.614;2022-11-18T13:45:26;10.10;99.90
50570;DHT22;36525;49.398;7.614;2022-11-18T13:48:20;10.00;99.90
50570;DHT22;36525;49.398;7.614;2022-11-18T13:50:47;9.90;99.90
50570;DHT22;36525;49.398;7.614;2022-11-18T13:53:34;9.90;99.90
50570;DHT22;36525;49.398;7.614;2022-11-18T13:58:57;9.80;99.90
50570;DHT22;36525;49.398;7.614;2022-11-18T14:01:44;9.80;99.90
50570;DHT22;36525;49.398;7.614;2022-11-18T14:04:21;9.80;99.90
50570;DHT22;36525;49.398;7.614;2022-11-18T14:06:49;9.80;99.90
50570;DHT22;36525;49.398;7.614;2022-11-18T14:09:23;9.80;99.90
50570;DHT22;36525;49.398;7.614;2022-11-18T14:14:41;9.70;99.90
50570;DHT22;36525;49.398;7.614;2022-11-18T14:17:23;9.50;99.90
50570;DHT22;36525;49.398;7.614;2022-11-18T14:19:58;9.40;99.90
50570;DHT22;36525;49.398;7.614;2022-11-18T14:22:27;9.40;99.90
50570;DHT22;36525;49.398;7.614;2022-11-18T14:25:13;9.40;99.90
50570;DHT22;36525;49.398;7.614;2022-11-18T14:35:38;9.60;99.90
50570;DHT22;36525;49.398;7.614;2022-11-18T14:38:14;9.60;99.90
50570;DHT22;36525;49.398;7.614;2022-11-18T14:41:06;9.60;99.90
50570;DHT22;36525;49.398;7.614;2022-11-18T14:43:35;9.50;99.90
50570;DHT22;36525;49.398;7.614;2022-11-18T14:46:17;9.40;99.90
50570;DHT22;36525;49.398;7.614;2022-11-18T14:48:45;9.40;99.90
50570;DHT22;36525;49.398;7.614;2022-11-18T14:51:13;9.40;99.90
50570;DHT22;36525;49.398;7.614;2022-11-18T14:53:42;9.40;99.90
50570;DHT22;36525;49.398;7.614;2022-11-18T14:56:25;9.40;99.90
50570;DHT22;36525;49.398;7.614;2022-11-18T14:58:53;9.30;99.90
50570;DHT22;36525;49.398;7.614;2022-11-18T15:01:20;9.30;99.90
50570;DHT22;36525;49.398;7.614;2022-11-18T15:03:54;9.30;99.90
50570;DHT22;36525;49.398;7.614;2022-11-18T15:06:22;9.30;99.90
50570;DHT22;36525;49.398;7.614;2022-11-18T15:08:51;9.20;99.90
50570;DHT22;36525;49.398;7.614;2022-11-18T15:11:19;9.20;99.90
50570;DHT22;36525;49.398;7.614;2022-11-18T15:13:46;9.20;99.90
50570;DHT22;36525;49.398;7.614;2022-11-18T15:16:16;9.10;99.90
50570;DHT22;36525;49.398;7.614;2022-11-18T15:18:47;9.10;99.90
50570;DHT22;36525;49.398;7.614;2022-11-18T15:21:15;9.10;99.90
50570;DHT22;36525;49.398;7.614;2022-11-18T15:23:43;9.00;99.90
50570;DHT22;36525;49.398;7.614;2022-11-18T15:26:34;9.00;99.90
50570;DHT22;36525;49.398;7.614;2022-11-18T15:29:02;9.00;99.90
50570;DHT22;36525;49.398;7.614;2022-11-18T15:31:30;9.00;99.90
50570;DHT22;36525;49.398;7.614;2022-11-18T15:33:56;9.00;99.90
50570;DHT22;36525;49.398;7.614;2022-11-18T15:36:32;8.90;99.90
50570;DHT22;36525;49.398;7.614;2022-11-18T15:38:59;8.90;99.90
50570;DHT22;36525;49.398;7.614;2022-11-18T15:41:27;8.90;99.90
50570;DHT22;36525;49.398;7.614;2022-11-18T15:43:57;8.80;99.90
50570;DHT22;36525;49.398;7.614;2022-11-18T15:46:26;8.70;99.90
50570;DHT22;36525;49.398;7.614;2022-11-18T15:48:54;8.70;99.90
50570;DHT22;36525;49.398;7.614;2022-11-18T15:51:23;8.60;99.90
50570;DHT22;36525;49.398;7.614;2022-11-18T15:53:52;8.60;99.90
50570;DHT22;36525;49.398;7.614;2022-11-18T15:59:02;8.50;99.90
50570;DHT22;36525;49.398;7.614;2022-11-18T16:01:37;8.60;99.90
50570;DHT22;36525;49.398;7.614;2022-11-18T16:04:06;8.70;99.90
50570;DHT22;36525;49.398;7.614;2022-11-18T16:06:35;8.70;99.90
50570;DHT22;36525;49.398;7.614;2022-11-18T16:09:04;8.80;99.90
50570;DHT22;36525;49.398;7.614;2022-11-18T16:11:32;8.70;99.90
50570;DHT22;36525;49.398;7.614;2022-11-18T16:14:19;8.70;99.90
50570;DHT22;36525;49.398;7.614;2022-11-18T16:16:49;8.60;99.90
50570;DHT22;36525;49.398;7.614;2022-11-18T16:19:19;8.60;99.90
50570;DHT22;36525;49.398;7.614;2022-11-18T16:21:48;8.50;99.90
50570;DHT22;36525;49.398;7.614;2022-11-18T16:24:21;8.50;99.90
50570;DHT22;36525;49.398;7.614;2022-11-18T16:26:53;8.40;99.90
50570;DHT22;36525;49.398;7.614;2022-11-18T16:29:20;8.40;99.90
50570;DHT22;36525;49.398;7.614;2022-11-18T16:31:49;8.40;99.90
50570;DHT22;36525;49.398;7.614;2022-11-18T16:34:24;8.40;99.90
50570;DHT22;36525;49.398;7.614;2022-11-18T16:36:55;8.40;99.90
50570;DHT22;36525;49.398;7.614;2022-11-18T16:39:25;8.40;99.90
50570;DHT22;36525;49.398;7.614;2022-11-18T16:42:00;8.40;99.90
50570;DHT22;36525;49.398;7.614;2022-11-18T16:44:35;8.30;99.90
50570;DHT22;36525;49.398;7.614;2022-11-18T16:47:03;8.30;99.90
50570;DHT22;36525;49.398;7.614;2022-11-18T16:49:40;8.30;99.90
50570;DHT22;36525;49.398;7.614;2022-11-18T16:52:07;8.20;99.90
50570;DHT22;36525;49.398;7.614;2022-11-18T16:54:34;8.20;99.90
50570;DHT22;36525;49.398;7.614;2022-11-18T16:57:10;8.20;99.90
50570;DHT22;36525;49.398;7.614;2022-11-18T16:59:37;8.10;99.90
50570;DHT22;36525;49.398;7.614;2022-11-18T17:02:05;8.20;99.90
50570;DHT22;36525;49.398;7.614;2022-11-18T17:04:32;8.20;99.90
50570;DHT22;36525;49.398;7.614;2022-11-18T17:07:02;8.10;99.90
50570;DHT22;36525;49.398;7.614;2022-11-18T17:09:29;8.20;99.90
50570;DHT22;36525;49.398;7.614;2022-11-18T17:11:57;8.10;99.90
50570;DHT22;36525;49.398;7.614;2022-11-18T17:14:24;8.10;99.90
50570;DHT22;36525;49.398;7.614;2022-11-18T17:16:51;8.10;99.90
50570;DHT22;36525;49.398;7.614;2022-11-18T17:19:20;8.10;99.90
50570;DHT22;36525;49.398;7.614;2022-11-18T17:21:50;8.10;99.90
50570;DHT22;36525;49.398;7.614;2022-11-18T17:24:19;8.10;99.90
50570;DHT22;36525;49.398;7.614;2022-11-18T17:26:48;8.10;99.90
50570;DHT22;36525;49.398;7.614;2022-11-18T17:29:16;8.00;99.90
50570;DHT22;36525;49.398;7.614;2022-11-18T17:31:43;8.10;99.90
50570;DHT22;36525;49.398;7.614;2022-11-18T17:34:12;8.10;99.90
50570;DHT22;36525;49.398;7.614;2022-11-18T17:36:40;8.00;99.90
50570;DHT22;36525;49.398;7.614;2022-11-18T17:39:08;8.00;99.90
50570;DHT22;36525;49.398;7.614;2022-11-18T17:41:37;8.00;99.90
50570;DHT22;36525;49.398;7.614;2022-11-18T17:44:22;8.00;99.90
50570;DHT22;36525;49.398;7.614;2022-11-18T17:46:50;8.00;99.90
50570;DHT22;36525;49.398;7.614;2022-11-18T17:49:18;8.00;99.90
50570;DHT22;36525;49.398;7.614;2022-11-18T17:51:47;8.00;99.90
50570;DHT22;36525;49.398;7.614;2022-11-18T17:54:14;8.00;99.90
50570;DHT22;36525;49.398;7.614;2022-11-18T17:56:42;8.10;99.90
50570;DHT22;36525;49.398;7.614;2022-11-18T17:59:09;8.10;99.90
50570;DHT22;36525;49.398;7.614;2022-11-18T18:01:35;8.10;99.90
50570;DHT22;36525;49.398;7.614;2022-11-18T18:04:03;8.10;99.90
50570;DHT22;36525;49.398;7.614;2022-11-18T18:06:30;8.10;99.90